PILOTS ONLINE: 420    ATC ONLINE: 70

CYIK - Ivujivik Airport

Location

IATA YIK
City Ivujivik
Country  Canada
Latitude 62° 25' 2" N
Longitude 77° 55' 31" W
Elevation 126 ft
Type Medium Airport

Runways

08/26 3521 ft / 100 ft

Weather

METAR
2014/07/24 19:00
CYIK 241900Z 05022G27KT 15SM VCFG FEW007 FEW020 FEW070 08/05 A2962 RMK SF0CU1AC2 LAST OBS/NEXT 251200UTC SLP032
TAF
2014/07/24 14:00
TAF CYIK 241338Z 2414/2421 04015KT P6SM FEW002 SCT007 BKN020 
      TEMPO 2414/2416 3SM BR OVC007 PROB30 2414/2416 1/2SM FG OVC002 
     FM241600 06015KT P6SM SCT020 
      TEMPO 2416/2418 BKN020 
      RMK NXT FCST WILL BE ISSUED AT 251345Z

Outbound flights

Inbound flights